Time;durP1;ratioP1;P1;durP2;ratioP2;P2;SDS_P1;SDS_P2;PMS_P1;PMS_P2;Temp;Humidity;BMP_temperature;BMP_pressure;BME280_temperature;BME280_humidity;BME280_pressure;Samples;Min_cycle;Max_cycle;Signal;HPM_P1;HPM_P2
2024/03/27 00:01:40;;;;;;;2.17;1.33;;;;;;;11.57;64.62;98305.41;5038274;28;20410;-68
2024/03/27 00:04:06;;;;;;;2.45;1.75;;;;;;;11.55;64.55;98295.06;5041084;28;20033;-67
2024/03/27 00:06:31;;;;;;;4.07;1.88;;;;;;;11.55;64.29;98295.06;5061772;28;20105;-67
2024/03/27 00:08:57;;;;;;;2.60;1.95;;;;;;;11.55;64.23;98288.91;5060754;28;20113;-67
2024/03/27 00:11:26;;;;;;;4.78;2.05;;;;;;;11.45;64.74;98284.50;5046118;28;20124;-66
2024/03/27 00:13:51;;;;;;;5.35;2.15;;;;;;;11.50;64.58;98268.59;5029892;28;20557;-66
2024/03/27 00:16:16;;;;;;;3.67;2.00;;;;;;;11.51;64.20;98272.06;5045779;28;20038;-66
2024/03/27 00:18:42;;;;;;;4.43;2.08;;;;;;;11.47;64.89;98268.66;5046813;28;20029;-66
2024/03/27 00:21:08;;;;;;;4.00;1.98;;;;;;;11.43;65.18;98270.69;5064347;28;20107;-66
2024/03/27 00:23:33;;;;;;;2.55;1.70;;;;;;;11.43;65.51;98266.06;5031054;28;20026;-67
2024/03/27 00:25:59;;;;;;;7.43;2.10;;;;;;;11.40;65.27;98266.88;5059671;28;20055;-67
2024/03/27 00:28:25;;;;;;;3.42;1.70;;;;;;;11.25;65.56;98265.69;5015086;28;20033;-65
2024/03/27 00:30:52;;;;;;;6.40;1.80;;;;;;;11.25;65.50;98259.53;5044496;28;20832;-66
2024/03/27 00:33:17;;;;;;;2.33;2.00;;;;;;;11.30;65.19;98270.59;5045224;28;20036;-66
2024/03/27 00:35:56;;;;;;;2.38;1.48;;;;;;;11.32;65.31;98256.69;5025155;28;20502;-66
2024/03/27 00:38:23;;;;;;;2.80;1.52;;;;;;;11.24;65.48;98250.72;5047131;28;20033;-66
2024/03/27 00:40:48;;;;;;;3.38;1.67;;;;;;;11.28;65.63;98246.00;5030426;28;20120;-66
2024/03/27 00:43:15;;;;;;;4.05;1.95;;;;;;;11.23;65.64;98241.09;5031116;28;20129;-66
2024/03/27 00:45:40;;;;;;;3.97;1.90;;;;;;;11.16;65.75;98235.88;5031263;28;20033;-66
2024/03/27 00:48:06;;;;;;;4.78;1.48;;;;;;;11.24;65.98;98226.47;5015218;28;20032;-67
2024/03/27 00:50:31;;;;;;;4.78;1.95;;;;;;;11.27;65.24;98230.22;5044338;28;20041;-66
2024/03/27 00:52:57;;;;;;;3.92;1.98;;;;;;;11.22;65.53;98230.75;5028266;28;20047;-66
2024/03/27 00:55:23;;;;;;;3.67;1.98;;;;;;;11.14;66.29;98227.44;5033963;28;20033;-65
2024/03/27 00:57:48;;;;;;;5.20;2.20;;;;;;;11.11;66.47;98227.53;5044452;28;20057;-68
2024/03/27 01:00:16;;;;;;;3.20;1.95;;;;;;;11.13;66.69;98222.47;5033721;28;20636;-66
2024/03/27 01:02:45;;;;;;;3.15;2.10;;;;;;;11.13;66.55;98209.00;5031877;28;20077;-66
2024/03/27 01:05:12;;;;;;;4.63;2.05;;;;;;;11.14;66.50;98213.97;5028563;28;20193;-66
2024/03/27 01:07:38;;;;;;;4.97;1.77;;;;;;;11.18;65.63;98211.19;5038014;28;20116;-66
2024/03/27 01:10:04;;;;;;;2.90;1.92;;;;;;;11.18;65.76;98197.72;5036710;28;20108;-67
2024/03/27 01:12:30;;;;;;;2.28;1.50;;;;;;;11.10;66.18;98197.13;5026209;28;20048;-66
2024/03/27 01:14:55;;;;;;;3.58;1.70;;;;;;;11.03;65.82;98191.91;5043705;28;20558;-66
2024/03/27 01:17:21;;;;;;;2.42;1.70;;;;;;;11.06;66.56;98187.59;5032307;28;20117;-67
2024/03/27 01:19:46;;;;;;;4.88;2.13;;;;;;;11.07;66.63;98202.59;5013281;28;20029;-68
2024/03/27 01:22:12;;;;;;;4.43;2.22;;;;;;;11.07;66.92;98186.44;5021860;28;20084;-67
2024/03/27 01:24:38;;;;;;;2.95;1.92;;;;;;;11.04;66.72;98179.19;5051148;28;20429;-66
2024/03/27 01:27:04;;;;;;;4.80;1.92;;;;;;;11.08;66.77;98183.31;5039830;28;20029;-67
2024/03/27 01:29:29;;;;;;;2.63;1.70;;;;;;;11.09;66.28;98178.72;5044570;28;20037;-67
2024/03/27 01:31:55;;;;;;;3.17;2.00;;;;;;;11.05;65.92;98181.47;5031538;28;20037;-70
2024/03/27 01:34:20;;;;;;;3.42;1.83;;;;;;;10.98;66.51;98170.09;5036003;28;20028;-67
2024/03/27 01:36:46;;;;;;;2.97;1.60;;;;;;;10.96;67.18;98175.13;5041323;28;20053;-67
2024/03/27 01:39:11;;;;;;;2.63;1.75;;;;;;;10.97;66.97;98177.44;5043792;28;20029;-67
2024/03/27 01:41:37;;;;;;;4.03;1.90;;;;;;;10.94;66.72;98166.72;5043804;28;20025;-67
2024/03/27 01:44:03;;;;;;;3.33;2.08;;;;;;;10.85;66.88;98168.06;5052661;28;20026;-67
2024/03/27 01:46:28;;;;;;;3.70;1.58;;;;;;;10.90;67.38;98164.88;5028233;28;20449;-66
2024/03/27 01:48:55;;;;;;;2.53;2.00;;;;;;;10.85;66.75;98157.28;5030904;28;20477;-67
2024/03/27 01:51:22;;;;;;;2.65;1.95;;;;;;;10.82;67.38;98158.09;5035578;28;20467;-67
2024/03/27 01:53:48;;;;;;;2.22;1.60;;;;;;;10.85;67.58;98149.22;5028366;28;20445;-68
2024/03/27 01:56:15;;;;;;;3.60;2.15;;;;;;;10.85;66.61;98159.97;5026359;28;20495;-66
2024/03/27 01:58:42;;;;;;;7.10;2.47;;;;;;;10.85;67.07;98162.69;5042744;28;20033;-68
2024/03/27 02:01:07;;;;;;;3.60;1.88;;;;;;;10.87;67.21;98162.25;5047820;28;20649;-67
2024/03/27 02:03:33;;;;;;;3.15;1.92;;;;;;;10.85;66.79;98168.06;5064460;28;20044;-66
2024/03/27 02:05:59;;;;;;;3.85;2.20;;;;;;;10.86;66.72;98169.56;5030537;28;20174;-67
2024/03/27 02:08:24;;;;;;;3.17;2.08;;;;;;;10.92;66.54;98167.13;5030112;28;20031;-66
2024/03/27 02:10:50;;;;;;;3.33;1.40;;;;;;;10.88;66.90;98169.13;5044941;28;20609;-67
2024/03/27 02:13:15;;;;;;;4.22;1.70;;;;;;;10.90;66.73;98167.56;5020218;28;20128;-67
2024/03/27 02:15:41;;;;;;;3.33;1.95;;;;;;;10.84;66.65;98161.16;5028853;28;20040;-67
2024/03/27 02:18:06;;;;;;;2.88;1.83;;;;;;;10.87;67.11;98163.00;5051125;28;20048;-67
2024/03/27 02:20:32;;;;;;;3.95;1.98;;;;;;;10.90;66.33;98162.16;5033930;28;20036;-65
2024/03/27 02:23:08;;;;;;;3.30;1.77;;;;;;;10.89;66.50;98154.53;5045837;28;20041;-66
2024/03/27 02:25:44;;;;;;;2.22;1.65;;;;;;;10.80;66.82;98155.06;5032469;28;20041;-67
2024/03/27 02:28:10;;;;;;;4.93;2.58;;;;;;;10.81;67.52;98151.22;5031009;28;20033;-66
2024/03/27 02:30:36;;;;;;;2.95;2.00;;;;;;;10.77;66.76;98144.38;5028275;28;20087;-65
2024/03/27 02:33:01;;;;;;;3.55;1.67;;;;;;;10.74;67.33;98143.28;5029454;28;20029;-66
2024/03/27 02:35:27;;;;;;;3.42;1.70;;;;;;;10.71;67.73;98146.06;5029274;28;20045;-66
2024/03/27 02:37:52;;;;;;;6.78;1.90;;;;;;;10.73;67.86;98130.25;5027175;28;20430;-65
2024/03/27 02:40:18;;;;;;;2.72;1.83;;;;;;;10.65;68.00;98128.88;5034301;28;20398;-66
2024/03/27 02:42:43;;;;;;;3.92;2.03;;;;;;;10.64;68.08;98125.44;5024551;28;20045;-67
2024/03/27 02:45:08;;;;;;;5.95;1.67;;;;;;;10.60;68.60;98132.84;5031620;28;20037;-66
2024/03/27 02:47:35;;;;;;;3.10;1.92;;;;;;;10.60;68.49;98134.75;5045964;28;20022;-67
2024/03/27 02:50:00;;;;;;;5.03;1.83;;;;;;;10.60;68.11;98130.16;5027469;28;20148;-72
2024/03/27 02:52:26;;;;;;;3.10;2.03;;;;;;;10.63;67.98;98133.91;5040383;28;20137;-66
2024/03/27 02:54:51;;;;;;;3.00;1.80;;;;;;;10.56;68.93;98140.22;5036444;28;20025;-67
2024/03/27 02:57:17;;;;;;;3.72;2.08;;;;;;;10.56;68.97;98134.06;5030328;28;20120;-65
2024/03/27 02:59:42;;;;;;;4.38;2.40;;;;;;;10.56;68.37;98142.91;5031726;28;20021;-68
2024/03/27 03:02:08;;;;;;;4.88;2.05;;;;;;;10.52;68.14;98141.47;5044753;28;20060;-67
2024/03/27 03:04:34;;;;;;;3.10;1.92;;;;;;;10.47;68.74;98126.56;5025595;28;20454;-67
2024/03/27 03:06:59;;;;;;;3.17;2.00;;;;;;;10.49;68.94;98123.47;5023914;28;20059;-66
2024/03/27 03:09:25;;;;;;;3.60;2.20;;;;;;;10.50;68.66;98124.97;5047450;28;20411;-66
2024/03/27 03:11:50;;;;;;;6.03;2.67;;;;;;;10.49;68.38;98110.03;5030933;28;20041;-65
2024/03/27 03:14:15;;;;;;;2.60;1.85;;;;;;;10.37;68.61;98119.47;5043767;28;20025;-67
2024/03/27 03:16:41;;;;;;;4.97;1.73;;;;;;;10.40;69.08;98115.19;5041439;28;20041;-68
2024/03/27 03:19:06;;;;;;;3.05;1.70;;;;;;;10.43;69.49;98109.00;5031893;28;20030;-67
2024/03/27 03:21:32;;;;;;;2.97;1.73;;;;;;;10.43;69.05;98098.97;5025607;28;20021;-65
2024/03/27 03:23:57;;;;;;;4.60;2.08;;;;;;;10.43;69.22;98104.34;5027980;28;20040;-67
2024/03/27 03:26:23;;;;;;;2.40;1.77;;;;;;;10.43;69.21;98106.31;5042396;28;20074;-67
2024/03/27 03:28:48;;;;;;;3.22;2.10;;;;;;;10.44;69.34;98097.81;5031359;28;20079;-67
2024/03/27 03:31:17;;;;;;;3.08;2.13;;;;;;;10.35;69.42;98094.94;5013160;28;20030;-67
2024/03/27 03:33:43;;;;;;;2.45;2.00;;;;;;;10.31;69.42;98090.78;5056375;28;20022;-66
2024/03/27 03:36:08;;;;;;;4.38;1.83;;;;;;;10.35;69.91;98099.53;5045436;28;20044;-67
2024/03/27 03:38:33;;;;;;;2.72;1.95;;;;;;;10.34;69.72;98095.31;5030630;28;20029;-67
2024/03/27 03:41:08;;;;;;;4.38;1.80;;;;;;;10.27;70.28;98087.41;5064032;28;20060;-68
2024/03/27 03:43:34;;;;;;;6.57;2.10;;;;;;;10.25;70.24;98090.53;5048781;28;20108;-67
2024/03/27 03:46:00;;;;;;;4.07;1.90;;;;;;;10.21;70.46;98079.06;5029543;28;20544;-67
2024/03/27 03:48:26;;;;;;;3.83;1.85;;;;;;;10.16;70.51;98068.06;5030617;28;20033;-68
2024/03/27 03:50:51;;;;;;;2.97;2.00;;;;;;;10.17;70.14;98062.25;5031939;28;20414;-67
2024/03/27 03:53:17;;;;;;;3.38;2.05;;;;;;;10.18;70.49;98057.63;5034622;28;20109;-67
2024/03/27 03:55:42;;;;;;;2.85;1.70;;;;;;;10.14;70.72;98052.34;5047509;28;20033;-66
2024/03/27 03:58:08;;;;;;;2.85;1.67;;;;;;;10.13;70.50;98053.50;5034109;28;20045;-67
2024/03/27 04:00:34;;;;;;;4.65;2.08;;;;;;;10.09;70.80;98047.41;5044007;28;20048;-67
2024/03/27 04:02:59;;;;;;;3.45;1.80;;;;;;;10.10;70.49;98048.97;5033311;28;20052;-67
2024/03/27 04:05:25;;;;;;;2.13;1.60;;;;;;;10.11;70.59;98036.25;5030979;28;20124;-67
2024/03/27 04:07:50;;;;;;;4.50;2.17;;;;;;;10.00;70.40;98028.41;5067112;28;20040;-67
2024/03/27 04:10:16;;;;;;;3.78;2.15;;;;;;;10.02;70.79;98024.13;5033925;28;20110;-69
2024/03/27 04:12:42;;;;;;;2.47;1.88;;;;;;;9.98;70.65;98025.38;5047047;28;20030;-67
2024/03/27 04:15:09;;;;;;;4.53;2.55;;;;;;;9.99;70.60;98011.50;5058005;28;20829;-67
2024/03/27 04:17:34;;;;;;;4.25;2.30;;;;;;;9.98;70.17;98006.53;5027252;28;20026;-68
2024/03/27 04:20:01;;;;;;;4.15;2.35;;;;;;;9.88;70.82;98007.50;5036842;28;20036;-71
2024/03/27 04:22:31;;;;;;;6.70;2.28;;;;;;;9.93;70.72;98001.63;5032100;28;20091;-68
2024/03/27 04:24:56;;;;;;;6.35;2.03;;;;;;;9.93;71.41;98013.16;5045910;28;20037;-68
2024/03/27 04:27:23;;;;;;;2.22;1.70;;;;;;;9.92;71.03;98008.19;5070934;28;20503;-70
2024/03/27 04:29:53;;;;;;;3.03;2.03;;;;;;;9.90;71.25;98018.59;5071263;28;20034;-67
2024/03/27 04:32:18;;;;;;;4.53;1.93;;;;;;;9.89;71.25;98020.53;5056045;28;20154;-67
2024/03/27 04:34:44;;;;;;;2.85;1.83;;;;;;;9.96;70.32;98028.47;5045421;28;20813;-67
2024/03/27 04:37:09;;;;;;;4.15;2.30;;;;;;;9.96;70.58;98025.00;5030698;28;20041;-67
2024/03/27 04:39:35;;;;;;;4.63;2.47;;;;;;;9.87;71.14;98019.44;5047719;28;20040;-66
2024/03/27 04:42:01;;;;;;;7.03;3.05;;;;;;;9.86;70.91;98017.91;5051068;28;20048;-66
2024/03/27 04:44:26;;;;;;;5.80;2.75;;;;;;;9.79;71.09;98002.69;5050411;28;20041;-66
2024/03/27 04:46:52;;;;;;;4.72;2.10;;;;;;;9.78;70.89;98006.56;5016624;28;20037;-67
2024/03/27 04:49:17;;;;;;;6.50;2.25;;;;;;;9.67;71.14;98000.63;5032964;28;20025;-67
2024/03/27 04:51:43;;;;;;;3.08;2.08;;;;;;;9.68;71.80;98001.38;5029519;28;20065;-66
2024/03/27 04:54:08;;;;;;;3.75;2.00;;;;;;;9.63;72.24;98009.94;5030577;28;20553;-66
2024/03/27 04:56:33;;;;;;;6.13;2.38;;;;;;;9.73;71.87;97998.22;5031490;28;20034;-68
2024/03/27 04:58:59;;;;;;;3.15;1.90;;;;;;;9.69;71.80;97998.28;5032051;28;20041;-67
2024/03/27 05:01:24;;;;;;;4.38;2.17;;;;;;;9.73;71.56;98004.38;5032042;28;20033;-66
2024/03/27 05:03:50;;;;;;;3.17;2.17;;;;;;;9.83;71.33;97999.94;5032235;28;20048;-67
2024/03/27 05:06:15;;;;;;;4.80;2.35;;;;;;;9.84;71.34;97998.75;5011140;28;20038;-66
2024/03/27 05:08:41;;;;;;;6.53;1.88;;;;;;;9.85;70.89;98016.41;5016510;28;20124;-69
2024/03/27 05:11:06;;;;;;;3.70;2.50;;;;;;;9.81;71.35;98008.41;5033597;28;20043;-67
2024/03/27 05:13:32;;;;;;;5.22;2.00;;;;;;;9.86;71.05;98016.00;5031022;28;20041;-66
2024/03/27 05:15:58;;;;;;;3.63;2.25;;;;;;;9.85;71.12;98019.09;5065806;28;20450;-66
2024/03/27 05:18:23;;;;;;;5.18;2.60;;;;;;;9.86;71.09;98015.22;5030221;28;20033;-68
2024/03/27 05:20:49;;;;;;;3.58;1.70;;;;;;;9.83;70.51;98008.00;5034530;28;20025;-68
2024/03/27 05:23:15;;;;;;;3.28;1.90;;;;;;;9.93;70.17;98002.41;5047497;28;20395;-67
2024/03/27 05:25:41;;;;;;;2.75;1.92;;;;;;;9.92;70.11;97995.53;5038495;28;20033;-70
2024/03/27 05:28:07;;;;;;;3.83;2.17;;;;;;;9.95;69.58;98001.97;5028630;28;20105;-71
2024/03/27 05:30:32;;;;;;;5.35;2.50;;;;;;;9.97;70.28;98002.31;5029442;28;20124;-67
2024/03/27 05:32:58;;;;;;;5.75;2.38;;;;;;;10.04;70.05;98004.88;5031245;28;20553;-67
2024/03/27 05:35:24;;;;;;;2.72;1.90;;;;;;;10.04;69.76;97996.81;5032446;28;20045;-66
2024/03/27 05:37:49;;;;;;;5.75;2.35;;;;;;;10.00;69.31;98001.50;5061889;28;20075;-67
2024/03/27 05:40:15;;;;;;;4.43;2.33;;;;;;;10.10;69.27;98002.47;5031149;28;20032;-68
2024/03/27 05:42:40;;;;;;;2.47;1.63;;;;;;;10.15;69.24;98004.66;5034101;28;20056;-67
2024/03/27 05:45:07;;;;;;;5.20;2.13;;;;;;;10.16;69.40;98009.66;5031206;28;20030;-68
2024/03/27 05:47:33;;;;;;;2.45;1.80;;;;;;;10.22;68.65;97999.16;5045943;28;20075;-67
2024/03/27 05:49:58;;;;;;;4.40;1.95;;;;;;;10.25;68.91;98004.47;5028068;28;20122;-67
2024/03/27 05:52:24;;;;;;;2.85;1.70;;;;;;;10.29;68.69;97999.75;5030669;28;20037;-67
2024/03/27 05:54:49;;;;;;;3.05;2.03;;;;;;;10.37;68.55;98009.19;5066397;28;20025;-67
2024/03/27 05:57:15;;;;;;;3.78;2.03;;;;;;;10.37;68.09;98003.81;5043004;28;20045;-67
2024/03/27 05:59:40;;;;;;;3.33;2.00;;;;;;;10.34;68.13;98006.56;5014311;28;20056;-67
2024/03/27 06:02:06;;;;;;;3.63;2.17;;;;;;;10.36;69.13;97994.22;5028866;28;20032;-68
2024/03/27 06:04:31;;;;;;;4.68;2.33;;;;;;;10.42;68.78;97994.47;5027187;28;20029;-68
2024/03/27 06:06:57;;;;;;;3.22;1.92;;;;;;;10.42;68.52;97997.91;5028588;28;20135;-66
2024/03/27 06:09:23;;;;;;;3.88;2.38;;;;;;;10.46;67.99;98006.66;5028939;28;20207;-68
2024/03/27 06:11:48;;;;;;;3.22;1.83;;;;;;;10.48;67.00;98004.31;5030463;28;20110;-67
2024/03/27 06:14:14;;;;;;;3.38;1.92;;;;;;;10.47;66.95;98012.81;5034344;28;20045;-67
2024/03/27 06:16:39;;;;;;;3.08;1.95;;;;;;;10.47;67.72;98013.56;5031221;28;20641;-66
2024/03/27 06:19:06;;;;;;;3.90;1.92;;;;;;;10.54;66.87;98018.03;5034327;28;20100;-67
2024/03/27 06:21:32;;;;;;;3.85;1.98;;;;;;;10.43;66.81;98029.00;5031675;28;20037;-67
2024/03/27 06:23:58;;;;;;;3.35;1.85;;;;;;;10.47;66.96;98023.56;5010796;28;20045;-67
2024/03/27 06:26:23;;;;;;;3.25;2.17;;;;;;;10.49;67.23;98030.03;5027741;28;20086;-69
2024/03/27 06:28:49;;;;;;;3.38;2.15;;;;;;;10.49;67.39;98021.22;5030623;28;20032;-68
2024/03/27 06:31:14;;;;;;;2.10;1.65;;;;;;;10.47;67.92;98024.31;5031258;28;20403;-68
2024/03/27 06:33:40;;;;;;;3.70;2.00;;;;;;;10.50;68.18;98034.25;5028738;28;20044;-67
2024/03/27 06:36:06;;;;;;;4.13;1.88;;;;;;;10.58;67.55;98037.53;5029196;28;20406;-68
2024/03/27 06:38:31;;;;;;;3.08;1.65;;;;;;;10.59;67.87;98039.03;5035170;28;20041;-67
2024/03/27 06:40:57;;;;;;;4.22;2.13;;;;;;;10.67;67.98;98046.56;5033896;28;20568;-66
2024/03/27 06:43:23;;;;;;;5.10;2.00;;;;;;;10.75;67.54;98057.91;5046877;28;20049;-66
2024/03/27 06:45:48;;;;;;;3.95;1.85;;;;;;;10.62;66.81;98063.22;5035310;28;20020;-66
2024/03/27 06:48:15;;;;;;;3.70;2.20;;;;;;;10.76;67.15;98068.25;5032494;28;20053;-66
2024/03/27 06:50:41;;;;;;;3.95;2.00;;;;;;;10.81;66.32;98070.47;5033854;28;20071;-66
2024/03/27 06:53:07;;;;;;;3.08;1.77;;;;;;;10.96;66.64;98070.13;5035716;28;20057;-67
2024/03/27 06:55:36;;;;;;;4.15;2.00;;;;;;;11.11;65.96;98082.81;5031020;28;20477;-67
2024/03/27 06:58:02;;;;;;;6.43;2.25;;;;;;;11.17;64.39;98083.09;5026497;28;20141;-67
2024/03/27 07:00:28;;;;;;;4.90;1.80;;;;;;;11.25;64.84;98087.88;5029891;28;20546;-65
2024/03/27 07:02:54;;;;;;;2.78;1.90;;;;;;;11.45;64.29;98090.47;5027686;28;20032;-65
2024/03/27 07:05:19;;;;;;;4.20;2.35;;;;;;;11.51;64.24;98092.25;5043893;28;20108;-65
2024/03/27 07:07:45;;;;;;;2.47;1.60;;;;;;;11.73;63.28;98089.75;5025252;28;20061;-68
2024/03/27 07:10:10;;;;;;;3.05;1.90;;;;;;;11.92;62.06;98088.88;5029961;28;20040;-66
2024/03/27 07:12:37;;;;;;;3.70;1.90;;;;;;;11.91;60.98;98090.06;5042305;28;20033;-68
2024/03/27 07:15:02;;;;;;;3.67;2.28;;;;;;;12.12;61.33;98086.78;5038432;28;20033;-66
2024/03/27 07:17:28;;;;;;;3.15;1.67;;;;;;;12.37;60.49;98084.13;5043952;28;20471;-68
2024/03/27 07:19:53;;;;;;;3.08;1.90;;;;;;;12.23;58.68;98087.22;5023897;28;20100;-67
2024/03/27 07:22:19;;;;;;;3.45;2.10;;;;;;;12.39;58.84;98070.97;5028543;28;20028;-67
2024/03/27 07:24:49;;;;;;;3.35;1.90;;;;;;;12.46;58.80;98064.59;5013735;28;20490;-70
2024/03/27 07:27:14;;;;;;;3.35;1.70;;;;;;;12.48;58.75;98073.78;5025971;28;20049;-66
2024/03/27 07:29:40;;;;;;;6.03;2.35;;;;;;;12.74;58.26;98063.75;5028678;28;20053;-66
2024/03/27 07:32:06;;;;;;;3.30;1.73;;;;;;;13.00;58.95;98072.59;5028189;28;20097;-66
2024/03/27 07:34:32;;;;;;;2.85;1.75;;;;;;;13.25;56.90;98076.03;5030788;28;20124;-66
2024/03/27 07:36:58;;;;;;;3.35;2.08;;;;;;;13.41;55.64;98067.03;5042521;28;20124;-66
2024/03/27 07:39:24;;;;;;;3.33;1.90;;;;;;;13.65;56.59;98065.44;5029922;28;20491;-70
2024/03/27 07:41:49;;;;;;;4.00;1.90;;;;;;;13.83;54.54;98071.00;5043297;28;20483;-66
2024/03/27 07:44:15;;;;;;;5.47;2.20;;;;;;;13.96;54.25;98063.56;5012082;28;20478;-66
2024/03/27 07:46:40;;;;;;;3.85;1.92;;;;;;;14.15;54.26;98059.03;5043450;28;20668;-67
2024/03/27 07:49:06;;;;;;;3.40;1.73;;;;;;;14.29;53.83;98061.22;5058955;28;20025;-67
2024/03/27 07:51:31;;;;;;;4.63;2.17;;;;;;;14.48;53.98;98056.69;5030401;28;20060;-66
2024/03/27 07:53:57;;;;;;;2.92;1.58;;;;;;;14.63;51.99;98063.06;5043376;28;20148;-67
2024/03/27 07:56:24;;;;;;;3.38;1.88;;;;;;;14.69;52.09;98064.72;5031081;28;20060;-66
2024/03/27 07:58:49;;;;;;;4.00;2.15;;;;;;;14.71;51.50;98056.91;5035343;28;20037;-67
2024/03/27 08:01:15;;;;;;;2.67;1.48;;;;;;;14.76;52.60;98055.59;5027415;28;20029;-66
2024/03/27 08:03:41;;;;;;;3.67;1.88;;;;;;;14.65;52.32;98055.25;5032393;28;20506;-67
2024/03/27 08:06:06;;;;;;;2.78;1.90;;;;;;;14.68;52.19;98051.63;5045802;28;20490;-67
2024/03/27 08:08:32;;;;;;;3.88;1.85;;;;;;;14.92;52.31;98044.50;5046599;28;20379;-66
2024/03/27 08:10:58;;;;;;;5.40;2.00;;;;;;;14.99;50.69;98049.63;5048646;28;20040;-67
2024/03/27 08:13:24;;;;;;;3.75;1.60;;;;;;;15.01;50.51;98042.56;5043658;28;20076;-66
2024/03/27 08:15:49;;;;;;;2.50;1.67;;;;;;;15.02;51.39;98035.94;5031755;28;20045;-67
2024/03/27 08:18:15;;;;;;;4.60;2.10;;;;;;;15.08;51.15;98042.28;5027912;28;20120;-65
2024/03/27 08:20:40;;;;;;;3.95;1.88;;;;;;;15.14;52.32;98026.94;5060624;28;20106;-66
2024/03/27 08:23:06;;;;;;;2.13;1.45;;;;;;;15.51;52.37;98018.84;5030255;28;20091;-66
2024/03/27 08:25:33;;;;;;;3.40;1.58;;;;;;;15.78;50.66;98022.31;5047567;28;20036;-66
2024/03/27 08:27:59;;;;;;;2.00;1.40;;;;;;;15.80;49.00;98016.41;5031381;28;20037;-66
2024/03/27 08:30:24;;;;;;;4.20;1.98;;;;;;;15.73;51.01;98000.44;5030019;28;20040;-67
2024/03/27 08:32:50;;;;;;;3.92;2.08;;;;;;;15.76;49.26;98000.28;5034979;28;20034;-67
2024/03/27 08:35:16;;;;;;;3.22;1.80;;;;;;;15.73;49.12;97995.78;5027197;28;20048;-67
2024/03/27 08:37:43;;;;;;;2.95;1.80;;;;;;;15.76;51.19;98000.28;5033089;28;20120;-67
2024/03/27 08:40:12;;;;;;;3.08;1.55;;;;;;;16.08;50.25;97996.16;5046360;28;20052;-67
2024/03/27 08:42:37;;;;;;;5.13;2.05;;;;;;;16.38;49.55;97991.69;5033342;28;20045;-67
2024/03/27 08:45:04;;;;;;;4.57;1.90;;;;;;;16.57;49.98;97982.28;5046274;28;20041;-66
2024/03/27 08:47:30;;;;;;;6.05;2.22;;;;;;;16.80;48.38;97989.72;5023987;28;20512;-66
2024/03/27 08:49:56;;;;;;;3.70;1.95;;;;;;;16.87;49.51;97995.56;5016334;28;20607;-67
2024/03/27 08:52:22;;;;;;;4.13;2.05;;;;;;;16.96;47.52;97995.50;5038061;28;20041;-65
2024/03/27 08:54:48;;;;;;;4.20;1.45;;;;;;;17.17;48.91;98001.84;5033062;28;20045;-69
2024/03/27 08:57:13;;;;;;;3.65;1.92;;;;;;;17.43;48.83;98005.59;5025874;28;20495;-67
2024/03/27 08:59:39;;;;;;;3.25;1.73;;;;;;;17.69;47.22;98006.59;5010860;28;20026;-67
2024/03/27 09:02:04;;;;;;;3.67;1.65;;;;;;;17.64;47.16;98007.28;5035435;28;20045;-66
2024/03/27 09:04:30;;;;;;;4.50;2.00;;;;;;;17.76;47.01;98011.72;5039728;28;20064;-66
2024/03/27 09:06:55;;;;;;;5.63;2.17;;;;;;;17.89;47.18;98000.53;5029398;28;20072;-67
2024/03/27 09:09:20;;;;;;;3.22;1.33;;;;;;;18.16;48.20;97999.50;5032017;28;20072;-66
2024/03/27 09:11:46;;;;;;;3.63;1.95;;;;;;;18.26;46.08;97990.00;5031383;28;20617;-67
2024/03/27 09:14:11;;;;;;;4.95;2.10;;;;;;;18.37;45.65;97990.94;5032154;28;20033;-66
2024/03/27 09:16:37;;;;;;;3.53;2.13;;;;;;;18.30;45.30;97977.69;5018997;28;20457;-67
2024/03/27 09:19:02;;;;;;;5.13;2.05;;;;;;;18.16;45.58;97970.28;5028422;28;20025;-67
2024/03/27 09:21:28;;;;;;;4.63;2.03;;;;;;;18.41;45.89;97975.13;5026880;28;20045;-66
2024/03/27 09:23:54;;;;;;;4.38;2.13;;;;;;;18.54;45.27;97977.59;5037904;28;20041;-67
2024/03/27 09:26:20;;;;;;;4.40;2.22;;;;;;;18.45;44.49;97966.78;5031182;28;20029;-66
2024/03/27 09:28:45;;;;;;;3.65;1.73;;;;;;;18.45;44.57;97978.44;5028868;28;20041;-66
2024/03/27 09:31:10;;;;;;;3.03;1.60;;;;;;;18.38;45.19;97980.78;5014133;28;20482;-68
2024/03/27 09:33:36;;;;;;;6.43;1.63;;;;;;;18.37;45.14;97977.28;5031196;28;20502;-68
2024/03/27 09:36:01;;;;;;;4.20;1.85;;;;;;;18.47;44.69;97969.78;5033338;28;20052;-65
2024/03/27 09:38:27;;;;;;;5.45;1.67;;;;;;;18.60;45.22;97975.69;5031770;28;20040;-67
2024/03/27 09:40:56;;;;;;;6.72;1.85;;;;;;;18.57;44.78;97965.72;5034420;28;20052;-66
2024/03/27 09:43:22;;;;;;;2.95;1.70;;;;;;;18.87;44.24;97976.06;5031986;28;20471;-66
2024/03/27 09:45:48;;;;;;;5.82;2.13;;;;;;;18.93;44.46;97979.63;5046164;28;20664;-66
2024/03/27 09:48:15;;;;;;;3.17;1.58;;;;;;;18.98;44.21;97989.09;5042239;28;20036;-67
2024/03/27 09:50:41;;;;;;;3.42;1.83;;;;;;;18.95;44.64;97992.78;5036014;28;20033;-68
2024/03/27 09:53:07;;;;;;;5.20;2.05;;;;;;;18.57;43.81;97988.28;5028155;28;20025;-67
2024/03/27 09:55:35;;;;;;;3.63;1.77;;;;;;;18.52;44.89;97988.22;5065067;28;20048;-68
2024/03/27 09:58:15;;;;;;;4.53;2.00;;;;;;;18.23;44.87;97986.25;5064541;28;20566;-70
2024/03/27 10:00:41;;;;;;;2.10;1.50;;;;;;;18.23;45.92;97990.97;5028892;28;20057;-67
2024/03/27 10:03:07;;;;;;;3.50;2.05;;;;;;;18.15;45.20;97987.88;5027817;28;20047;-67
2024/03/27 10:05:33;;;;;;;5.40;2.22;;;;;;;18.28;45.91;97991.03;5046059;28;20104;-66
2024/03/27 10:08:00;;;;;;;6.32;2.15;;;;;;;18.38;45.71;97991.69;5030448;28;20033;-68
2024/03/27 10:10:26;;;;;;;4.28;1.98;;;;;;;18.41;45.20;97988.75;5029569;28;20060;-67
2024/03/27 10:12:52;;;;;;;3.83;1.75;;;;;;;18.41;45.87;97985.28;5031500;28;20491;-66
2024/03/27 10:15:18;;;;;;;4.88;1.80;;;;;;;18.40;45.18;97986.50;5017357;28;20041;-67
2024/03/27 10:17:44;;;;;;;4.68;1.88;;;;;;;18.18;45.94;97976.00;5035132;28;20065;-67
2024/03/27 10:20:10;;;;;;;5.45;2.17;;;;;;;18.20;47.46;97983.72;5028639;28;20059;-66
2024/03/27 10:22:37;;;;;;;3.42;1.77;;;;;;;18.42;47.28;97975.88;5065443;28;20037;-66
2024/03/27 10:25:05;;;;;;;4.00;1.83;;;;;;;18.56;46.73;97975.88;5043196;28;20064;-66
2024/03/27 10:27:35;;;;;;;4.57;1.90;;;;;;;18.53;46.19;97995.16;5069278;28;20079;-66
2024/03/27 10:30:01;;;;;;;4.85;1.70;;;;;;;18.54;45.88;97985.78;5019592;28;20044;-66
2024/03/27 10:32:27;;;;;;;3.58;2.03;;;;;;;18.59;46.53;97985.09;5029016;28;20607;-67
2024/03/27 10:34:53;;;;;;;4.10;2.03;;;;;;;18.74;46.25;97988.53;5026160;28;20041;-67
2024/03/27 10:37:20;;;;;;;4.22;2.30;;;;;;;18.86;46.42;97982.00;5028654;28;20059;-67
2024/03/27 10:39:46;;;;;;;3.67;2.03;;;;;;;18.89;45.82;97978.34;5060662;28;20053;-66
2024/03/27 10:42:23;;;;;;;3.08;2.03;;;;;;;19.07;44.98;97980.03;5046122;28;20028;-66
2024/03/27 10:44:53;;;;;;;4.88;2.22;;;;;;;19.20;44.22;97983.19;5027007;28;20439;-68
2024/03/27 10:47:23;;;;;;;5.23;2.00;;;;;;;19.10;42.88;97984.53;5026714;28;20041;-66
2024/03/27 10:49:50;;;;;;;2.63;1.90;;;;;;;18.89;44.61;97983.78;5030599;28;20503;-67
2024/03/27 10:52:17;;;;;;;3.35;2.40;;;;;;;18.84;43.98;97985.22;5047830;28;20026;-66
2024/03/27 10:54:44;;;;;;;3.80;2.08;;;;;;;18.91;44.11;97973.88;5032565;28;20380;-67
2024/03/27 10:57:19;;;;;;;3.40;1.65;;;;;;;19.22;43.86;97980.72;5051742;28;20513;-67
2024/03/27 10:59:49;;;;;;;5.10;1.65;;;;;;;19.32;42.11;97982.84;5028546;28;20506;-67
2024/03/27 11:02:18;;;;;;;2.65;1.90;;;;;;;19.29;42.32;97980.31;5036080;28;20616;-67
2024/03/27 11:04:53;;;;;;;3.10;1.48;;;;;;;19.24;42.32;97972.81;5029396;28;20092;-67
2024/03/27 11:07:19;;;;;;;3.33;1.73;;;;;;;19.14;42.92;97976.91;5022993;28;20021;-67
2024/03/27 11:09:50;;;;;;;3.80;2.00;;;;;;;19.17;43.18;97984.88;5045066;28;20033;-67
2024/03/27 11:12:18;;;;;;;5.53;2.33;;;;;;;19.38;43.98;97978.22;5031373;28;20041;-66
2024/03/27 11:14:47;;;;;;;4.55;1.60;;;;;;;19.58;44.51;97974.69;5032555;28;20107;-66
2024/03/27 11:17:14;;;;;;;6.03;1.67;;;;;;;19.84;43.90;97963.78;5031282;28;20061;-67
2024/03/27 11:19:41;;;;;;;4.85;2.10;;;;;;;20.03;44.59;97968.44;5030527;28;20091;-68
2024/03/27 11:22:12;;;;;;;2.55;1.45;;;;;;;20.20;42.10;97974.06;5029648;28;20044;-64
2024/03/27 11:24:38;;;;;;;2.28;1.45;;;;;;;20.12;42.26;97972.97;5031625;28;20091;-66
2024/03/27 11:27:04;;;;;;;3.92;1.80;;;;;;;19.95;42.70;97980.28;5045607;28;20029;-65
2024/03/27 11:29:31;;;;;;;4.57;2.10;;;;;;;19.84;42.95;97977.44;5061115;28;20037;-66